createdAt,value
2022-09-12T00:02:21.811Z,22.95
2022-09-12T00:04:49.404Z,21.65
2022-09-12T00:07:17.096Z,18.75
2022-09-12T00:09:44.564Z,20.10
2022-09-12T00:12:12.037Z,19.03
2022-09-12T00:14:39.460Z,19.75
2022-09-12T00:17:06.865Z,22.80
2022-09-12T00:19:35.607Z,24.30
2022-09-12T00:22:03.122Z,25.90
2022-09-12T00:24:30.527Z,24.07
2022-09-12T00:26:57.952Z,23.08
2022-09-12T00:29:25.370Z,23.13
2022-09-12T00:31:52.888Z,21.65
2022-09-12T00:34:20.323Z,22.38
2022-09-12T00:36:49.080Z,24.07
2022-09-12T00:39:17.974Z,22.45
2022-09-12T00:41:45.638Z,27.25
2022-09-12T00:44:45.606Z,25.20
2022-09-12T00:47:18.531Z,27.98
2022-09-12T00:49:50.780Z,27.00
2022-09-12T00:52:25.336Z,28.50
2022-09-12T00:54:58.360Z,28.35
2022-09-12T00:57:30.758Z,26.88
2022-09-12T01:00:04.432Z,26.38
2022-09-12T01:02:33.012Z,32.10
2022-09-12T01:05:01.316Z,31.40
2022-09-12T01:07:30.367Z,28.30
2022-09-12T01:09:57.988Z,32.30
2022-09-12T01:12:25.566Z,32.60
2022-09-12T01:14:53.003Z,27.40
2022-09-12T01:17:20.477Z,29.52
2022-09-12T01:20:39.202Z,28.48
2022-09-12T01:23:44.150Z,27.55
2022-09-12T01:26:36.487Z,24.83
2022-09-12T01:29:19.064Z,28.10
2022-09-12T01:31:55.056Z,25.70
2022-09-12T01:34:28.067Z,24.13
2022-09-12T01:37:04.739Z,25.35
2022-09-12T01:39:41.292Z,24.17
2022-09-12T01:42:16.356Z,24.67
2022-09-12T01:44:52.541Z,29.67
2022-09-12T01:47:28.640Z,26.05
2022-09-12T01:50:01.548Z,25.58
2022-09-12T01:52:33.301Z,25.60
2022-09-12T01:55:09.805Z,26.57
2022-09-12T01:57:41.983Z,27.88
2022-09-12T02:00:12.627Z,25.30
2022-09-12T02:02:52.868Z,28.17
2022-09-12T02:05:27.496Z,31.40
2022-09-12T02:08:02.086Z,27.73
2022-09-12T02:10:33.872Z,23.85
2022-09-12T02:13:08.093Z,29.33
2022-09-12T02:15:38.994Z,28.35
2022-09-12T02:18:09.414Z,33.00
2022-09-12T02:20:48.851Z,35.03
2022-09-12T02:23:21.703Z,45.20
2022-09-12T02:25:55.471Z,34.83
2022-09-12T02:28:27.308Z,37.85
2022-09-12T02:31:06.374Z,33.97
2022-09-12T02:33:45.642Z,31.57
2022-09-12T02:36:24.414Z,30.10
2022-09-12T02:38:52.123Z,30.80
2022-09-12T02:41:21.627Z,31.90
2022-09-12T02:43:51.340Z,30.50
2022-09-12T02:46:23.183Z,28.37
2022-09-12T02:48:52.430Z,32.05
2022-09-12T02:51:23.513Z,34.65
2022-09-12T02:53:51.514Z,34.47
2022-09-12T02:56:24.564Z,33.63
2022-09-12T02:58:52.933Z,37.00
2022-09-12T03:01:33.893Z,35.97
2022-09-12T03:04:33.050Z,34.45
2022-09-12T03:07:12.864Z,40.00
2022-09-12T03:09:46.396Z,38.95
2022-09-12T03:12:26.735Z,33.83
2022-09-12T03:15:15.620Z,26.33
2022-09-12T03:17:56.324Z,23.38
2022-09-12T03:20:39.854Z,20.75
2022-09-12T03:23:15.608Z,24.83
2022-09-12T03:25:48.540Z,28.37
2022-09-12T03:28:18.327Z,29.77
2022-09-12T03:30:47.359Z,29.50
2022-09-12T03:33:16.232Z,31.05
2022-09-12T03:35:45.207Z,32.40
2022-09-12T03:38:12.657Z,29.90
2022-09-12T03:40:40.760Z,27.67
2022-09-12T03:43:09.882Z,31.48
2022-09-12T03:45:38.225Z,30.23
2022-09-12T03:48:06.784Z,33.15
2022-09-12T03:50:34.785Z,29.03
2022-09-12T03:53:04.366Z,28.20
2022-09-12T03:55:31.956Z,31.55
2022-09-12T03:57:59.388Z,30.27
2022-09-12T04:00:27.178Z,33.33
2022-09-12T04:02:56.322Z,34.60
2022-09-12T04:05:24.529Z,34.78
2022-09-12T04:07:52.494Z,32.33
2022-09-12T04:10:21.319Z,31.20
2022-09-12T04:12:48.743Z,31.13
2022-09-12T04:15:16.340Z,25.83
2022-09-12T04:17:43.775Z,25.38
2022-09-12T04:20:11.198Z,24.90
2022-09-12T04:22:38.627Z,23.75
2022-09-12T04:25:07.109Z,26.25
2022-09-12T04:27:35.908Z,22.07
2022-09-12T04:30:03.363Z,23.48
2022-09-12T04:32:31.722Z,25.52
2022-09-12T04:34:59.163Z,25.30
2022-09-12T04:37:26.567Z,28.83
2022-09-12T04:39:57.633Z,24.43
2022-09-12T04:42:26.349Z,26.65
2022-09-12T04:44:55.088Z,29.58
2022-09-12T04:47:23.037Z,29.42
2022-09-12T04:49:51.028Z,27.40
2022-09-12T04:52:18.444Z,28.70
2022-09-12T04:54:45.831Z,33.17
2022-09-12T04:57:13.423Z,33.47
2022-09-12T04:59:40.909Z,28.92
2022-09-12T05:02:09.710Z,33.63
2022-09-12T05:04:37.131Z,35.03
2022-09-12T05:07:05.697Z,38.17
2022-09-12T05:09:33.141Z,36.58
2022-09-12T05:12:05.188Z,36.53
2022-09-12T05:14:33.747Z,28.02
2022-09-12T05:17:02.071Z,28.70
2022-09-12T05:19:32.160Z,32.38
2022-09-12T05:22:00.146Z,30.33
2022-09-12T05:24:27.655Z,30.40
2022-09-12T05:26:55.139Z,30.17
2022-09-12T05:29:22.551Z,32.20
2022-09-12T05:31:52.011Z,28.88
2022-09-12T05:34:19.874Z,31.65
2022-09-12T05:36:49.043Z,30.40
2022-09-12T05:39:16.735Z,34.28
2022-09-12T05:41:44.159Z,29.93
2022-09-12T05:44:13.953Z,31.58
2022-09-12T05:46:43.277Z,35.45
2022-09-12T05:49:12.960Z,28.77
2022-09-12T05:51:43.724Z,26.20
2022-09-12T05:54:14.963Z,21.63
2022-09-12T05:56:44.338Z,26.45
2022-09-12T05:59:13.807Z,30.45
2022-09-12T06:01:41.742Z,25.95
2022-09-12T06:04:09.456Z,33.20
2022-09-12T06:06:41.570Z,34.03
2022-09-12T06:09:09.406Z,30.08
2022-09-12T06:11:40.697Z,31.70
2022-09-12T06:14:09.798Z,28.85
2022-09-12T06:16:38.116Z,24.25
2022-09-12T06:19:07.908Z,28.37
2022-09-12T06:21:37.751Z,26.52
2022-09-12T06:24:05.472Z,30.30
2022-09-12T06:26:33.162Z,28.92
2022-09-12T06:29:02.888Z,27.38
2022-09-12T06:31:33.025Z,26.80
2022-09-12T06:34:02.149Z,25.65
2022-09-12T06:36:31.642Z,25.58
2022-09-12T06:39:00.722Z,26.20
2022-09-12T06:41:29.130Z,21.00
2022-09-12T06:43:56.996Z,22.30
2022-09-12T06:46:26.304Z,21.20
2022-09-12T06:48:54.304Z,17.60
2022-09-12T06:51:21.937Z,22.77
2022-09-12T06:53:50.337Z,22.98
2022-09-12T06:56:22.805Z,20.27
2022-09-12T06:58:51.749Z,24.98
2022-09-12T07:01:20.954Z,23.30
2022-09-12T07:03:51.757Z,20.38
2022-09-12T07:06:21.520Z,20.33
2022-09-12T07:08:49.447Z,18.47
2022-09-12T07:11:18.828Z,20.73
2022-09-12T07:13:48.133Z,24.55
2022-09-12T07:16:19.674Z,17.73
2022-09-12T07:18:52.891Z,19.85
2022-09-12T07:21:20.624Z,16.53
2022-09-12T07:23:48.657Z,16.00
2022-09-12T07:26:18.743Z,15.05
2022-09-12T07:28:46.141Z,13.27
2022-09-12T07:31:15.442Z,12.98
2022-09-12T07:33:44.257Z,14.97
2022-09-12T07:36:15.179Z,12.68
2022-09-12T07:38:44.268Z,12.45
2022-09-12T07:41:12.887Z,12.48
2022-09-12T07:43:40.917Z,12.27
2022-09-12T07:46:08.818Z,12.47
2022-09-12T07:48:36.315Z,11.07
2022-09-12T07:51:06.475Z,10.05
2022-09-12T07:53:37.241Z,12.52
2022-09-12T07:56:05.419Z,10.23
2022-09-12T07:58:33.694Z,10.47
2022-09-12T08:01:04.844Z,12.15
2022-09-12T08:03:32.577Z,9.70
2022-09-12T08:06:11.005Z,9.15
2022-09-12T08:08:39.828Z,10.05
2022-09-12T08:11:10.003Z,6.40
2022-09-12T08:13:39.621Z,7.70
2022-09-12T08:16:12.121Z,8.52
2022-09-12T08:18:40.277Z,6.35
2022-09-12T08:21:13.426Z,7.57
2022-09-12T08:23:42.384Z,7.10
2022-09-12T08:26:11.681Z,7.63
2022-09-12T08:28:40.941Z,5.60
2022-09-12T08:31:10.199Z,7.22
2022-09-12T08:33:38.030Z,8.88
2022-09-12T08:36:06.432Z,4.67
2022-09-12T08:38:34.593Z,5.15
2022-09-12T08:41:08.787Z,5.07
2022-09-12T08:43:54.537Z,4.93
2022-09-12T08:46:29.982Z,5.78
2022-09-12T08:49:00.805Z,4.33
2022-09-12T08:51:29.307Z,5.88
2022-09-12T08:53:58.221Z,5.47
2022-09-12T08:56:31.776Z,5.18
2022-09-12T08:58:59.284Z,4.88
2022-09-12T09:01:32.795Z,5.30
2022-09-12T09:04:23.638Z,5.07
2022-09-12T09:07:16.719Z,5.10
2022-09-12T09:09:59.526Z,7.15
2022-09-12T09:12:37.639Z,4.07
2022-09-12T09:15:27.716Z,5.37
2022-09-12T09:18:01.739Z,4.90
2022-09-12T09:20:36.453Z,4.80
2022-09-12T09:23:09.523Z,4.72
2022-09-12T09:25:44.421Z,5.80
2022-09-12T09:28:19.078Z,4.57
2022-09-12T09:30:47.487Z,4.43
2022-09-12T09:33:21.407Z,4.68
2022-09-12T09:35:57.590Z,4.22
2022-09-12T09:38:39.904Z,3.92
2022-09-12T09:41:21.763Z,3.67
2022-09-12T09:43:50.628Z,4.50
2022-09-12T09:46:18.344Z,4.15
2022-09-12T09:48:48.915Z,4.20
2022-09-12T09:51:21.771Z,3.65
2022-09-12T09:53:52.968Z,3.97
2022-09-12T09:56:28.846Z,5.85
2022-09-12T09:58:57.832Z,5.88
2022-09-12T10:01:28.527Z,4.32
2022-09-12T10:03:57.159Z,3.08
2022-09-12T10:06:30.859Z,3.33
2022-09-12T10:09:21.589Z,3.08
2022-09-12T10:11:49.645Z,3.83
2022-09-12T10:14:39.415Z,3.60
2022-09-12T10:17:23.903Z,5.38
2022-09-12T10:20:10.675Z,3.30
2022-09-12T10:22:39.443Z,2.45
2022-09-12T10:25:13.305Z,3.63
2022-09-12T10:27:42.824Z,2.60
2022-09-12T10:30:19.913Z,2.90
2022-09-12T10:32:50.684Z,2.70
2022-09-12T10:35:20.848Z,2.20
2022-09-12T10:37:55.307Z,3.88
2022-09-12T10:40:25.997Z,2.13
2022-09-12T10:42:55.415Z,3.10
2022-09-12T10:45:28.901Z,3.10
2022-09-12T10:48:02.096Z,2.33
2022-09-12T10:50:36.145Z,2.08
2022-09-12T10:53:25.691Z,1.92
2022-09-12T10:56:06.000Z,2.13
2022-09-12T10:58:48.064Z,2.50
2022-09-12T11:01:29.042Z,3.28
2022-09-12T11:04:15.587Z,2.60
2022-09-12T11:06:54.668Z,3.47
2022-09-12T11:09:35.699Z,2.15
2022-09-12T11:12:14.240Z,2.73
2022-09-12T11:14:52.358Z,3.45
2022-09-12T11:17:32.242Z,2.85
2022-09-12T11:20:28.342Z,3.15
2022-09-12T11:23:37.884Z,3.45
2022-09-12T11:26:18.927Z,2.13
2022-09-12T11:28:58.469Z,2.67
2022-09-12T11:31:55.167Z,3.60
2022-09-12T11:34:31.867Z,2.05
2022-09-12T11:37:18.085Z,2.92
2022-09-12T11:39:51.315Z,5.90
2022-09-12T11:42:27.392Z,2.92
2022-09-12T11:45:04.030Z,3.88
2022-09-12T11:47:35.239Z,2.22
2022-09-12T11:50:16.429Z,2.38
2022-09-12T11:52:43.834Z,1.80
2022-09-12T11:55:18.058Z,2.67
2022-09-12T11:57:49.317Z,4.18
2022-09-12T12:00:19.463Z,1.85
2022-09-12T12:03:02.110Z,1.10
2022-09-12T12:05:36.955Z,1.37
2022-09-12T12:08:07.743Z,3.33
2022-09-12T12:10:38.544Z,2.67
2022-09-12T12:13:16.653Z,2.50
2022-09-12T12:15:48.100Z,1.20
2022-09-12T12:18:19.642Z,1.90
2022-09-12T12:20:48.479Z,2.80
2022-09-12T12:23:25.446Z,2.65
2022-09-12T12:25:54.919Z,4.22
2022-09-12T12:28:59.708Z,2.35
2022-09-12T12:31:27.437Z,2.00
2022-09-12T12:34:02.229Z,2.15
2022-09-12T12:36:40.231Z,1.60
2022-09-12T12:39:44.067Z,2.55
2022-09-12T12:42:13.927Z,2.10
2022-09-12T12:44:51.364Z,2.43
2022-09-12T12:47:21.825Z,3.08
2022-09-12T12:49:54.377Z,6.25
2022-09-12T12:52:24.295Z,2.92
2022-09-12T12:54:58.195Z,3.25
2022-09-12T12:57:30.424Z,1.73
2022-09-12T13:00:02.187Z,2.28
2022-09-12T13:02:33.530Z,2.67
2022-09-12T13:05:06.750Z,1.50
2022-09-12T13:07:38.540Z,1.88
2022-09-12T13:10:08.407Z,2.30
2022-09-12T13:12:38.663Z,2.78
2022-09-12T13:15:47.555Z,2.80
2022-09-12T13:18:19.551Z,3.72
2022-09-12T13:20:52.156Z,2.80
2022-09-12T13:23:25.730Z,1.97
2022-09-12T13:25:54.560Z,5.20
2022-09-12T13:28:22.200Z,2.40
2022-09-12T13:30:58.300Z,2.00
2022-09-12T13:33:36.881Z,1.50
2022-09-12T13:36:24.110Z,1.77
2022-09-12T13:39:03.354Z,1.20
2022-09-12T13:41:50.955Z,2.53
2022-09-12T13:44:21.595Z,1.88
2022-09-12T13:46:50.144Z,2.60
2022-09-12T13:49:23.811Z,4.83
2022-09-12T13:52:00.685Z,2.40
2022-09-12T13:54:30.716Z,1.50
2022-09-12T13:56:59.642Z,2.42
2022-09-12T13:59:27.235Z,2.30
2022-09-12T14:01:54.866Z,3.37
2022-09-12T14:04:41.789Z,1.58
2022-09-12T14:07:16.483Z,3.78
2022-09-12T14:09:53.512Z,3.33
2022-09-12T14:12:26.522Z,1.98
2022-09-12T14:14:54.364Z,3.30
2022-09-12T14:17:29.328Z,2.67
2022-09-12T14:19:59.198Z,2.72
2022-09-12T14:22:29.775Z,2.88
2022-09-12T14:24:59.747Z,2.00
2022-09-12T14:27:31.326Z,2.40
2022-09-12T14:30:03.225Z,2.80
2022-09-12T14:32:30.758Z,3.03
2022-09-12T14:35:18.906Z,2.15
2022-09-12T14:37:49.176Z,2.03
2022-09-12T14:40:20.632Z,3.23
2022-09-12T14:42:50.468Z,1.95
2022-09-12T14:45:24.476Z,2.22
2022-09-12T14:47:53.999Z,1.55
2022-09-12T14:50:24.577Z,4.30
2022-09-12T14:53:05.071Z,3.80
2022-09-12T14:55:35.666Z,2.72
2022-09-12T14:58:17.256Z,3.75
2022-09-12T15:00:55.866Z,1.90
2022-09-12T15:03:29.671Z,2.38
2022-09-12T15:05:57.590Z,2.50
2022-09-12T15:08:26.754Z,2.20
2022-09-12T15:10:56.103Z,4.80
2022-09-12T15:13:25.767Z,2.25
2022-09-12T15:15:55.649Z,1.92
2022-09-12T15:18:25.733Z,2.50
2022-09-12T15:20:56.291Z,1.63
2022-09-12T15:23:33.607Z,2.20
2022-09-12T15:26:02.908Z,1.40
2022-09-12T15:28:32.380Z,2.25
2022-09-12T15:31:06.446Z,1.93
2022-09-12T15:33:34.064Z,1.63
2022-09-12T15:36:01.531Z,1.88
2022-09-12T15:38:29.020Z,3.13
2022-09-12T15:40:57.392Z,2.13
2022-09-12T15:43:27.042Z,2.10
2022-09-12T15:45:54.575Z,2.67
2022-09-12T15:48:22.058Z,2.65
2022-09-12T15:50:49.698Z,3.28
2022-09-12T15:53:18.215Z,1.40
2022-09-12T15:55:45.763Z,1.73
2022-09-12T15:58:14.185Z,1.70
2022-09-12T16:00:42.960Z,1.95
2022-09-12T16:03:21.516Z,2.25
2022-09-12T16:05:49.229Z,1.58
2022-09-12T16:08:16.658Z,1.67
2022-09-12T16:10:45.021Z,3.42
2022-09-12T16:13:12.522Z,2.75
2022-09-12T16:15:40.049Z,2.33
2022-09-12T16:18:09.779Z,2.92
2022-09-12T16:20:40.250Z,2.80
2022-09-12T16:23:07.851Z,4.28
2022-09-12T16:25:35.314Z,1.30
2022-09-12T16:28:05.588Z,2.97
2022-09-12T16:30:33.037Z,2.22
2022-09-12T16:33:00.457Z,1.90
2022-09-12T16:35:29.331Z,2.97
2022-09-12T16:37:56.740Z,1.67
2022-09-12T16:40:24.204Z,3.45
2022-09-12T16:42:51.602Z,3.83
2022-09-12T16:45:19.024Z,2.00
2022-09-12T16:47:46.670Z,3.08
2022-09-12T16:50:14.106Z,1.70
2022-09-12T16:52:42.839Z,2.35
2022-09-12T16:55:10.916Z,3.03
2022-09-12T16:57:38.615Z,2.00
2022-09-12T17:00:07.544Z,1.80
2022-09-12T17:02:34.994Z,1.67
2022-09-12T17:05:02.603Z,3.50
2022-09-12T17:07:30.386Z,2.40
2022-09-12T17:09:59.170Z,2.80
2022-09-12T17:12:26.613Z,1.48
2022-09-12T17:14:54.292Z,3.25
2022-09-12T17:17:21.747Z,2.28
2022-09-12T17:19:49.177Z,1.85
2022-09-12T17:22:16.636Z,2.20
2022-09-12T17:24:44.046Z,1.83
2022-09-12T17:27:12.862Z,2.70
2022-09-12T17:29:41.396Z,1.88
2022-09-12T17:32:08.874Z,1.42
2022-09-12T17:34:36.329Z,3.07
2022-09-12T17:37:03.785Z,3.28
2022-09-12T17:39:31.245Z,1.90
2022-09-12T17:41:58.903Z,2.78
2022-09-12T17:44:29.644Z,2.70
2022-09-12T17:46:57.155Z,3.37
2022-09-12T17:49:25.356Z,5.53
2022-09-12T17:51:52.915Z,1.70
2022-09-12T17:54:21.681Z,1.90
2022-09-12T17:56:51.211Z,1.70
2022-09-12T17:59:21.307Z,2.97
2022-09-12T18:02:07.496Z,1.50
2022-09-12T18:04:35.054Z,3.38
2022-09-12T18:07:02.921Z,1.48
2022-09-12T18:09:31.181Z,2.63
2022-09-12T18:11:58.816Z,4.63
2022-09-12T18:14:27.624Z,5.20
2022-09-12T18:16:57.501Z,2.20
2022-09-12T18:19:26.529Z,1.65
2022-09-12T18:21:54.293Z,1.77
2022-09-12T18:24:22.341Z,2.20
2022-09-12T18:26:49.836Z,1.45
2022-09-12T18:29:19.819Z,2.17
2022-09-12T18:31:48.049Z,2.05
2022-09-12T18:34:17.725Z,2.88
2022-09-12T18:36:47.361Z,1.87
2022-09-12T18:39:15.371Z,2.83
2022-09-12T18:41:43.188Z,2.22
2022-09-12T18:44:12.351Z,2.75
2022-09-12T18:46:40.194Z,1.90
2022-09-12T18:49:09.349Z,2.97
2022-09-12T18:51:40.063Z,3.20
2022-09-12T18:54:11.510Z,2.97
2022-09-12T18:56:43.326Z,3.10
2022-09-12T18:59:12.728Z,1.95
2022-09-12T19:01:40.381Z,2.73
2022-09-12T19:04:09.772Z,2.58
2022-09-12T19:06:40.306Z,1.95
2022-09-12T19:09:09.511Z,1.70
2022-09-12T19:11:38.478Z,2.78
2022-09-12T19:14:06.549Z,2.00
2022-09-12T19:16:34.537Z,2.05
2022-09-12T19:19:02.529Z,2.72
2022-09-12T19:21:31.597Z,3.83
2022-09-12T19:24:02.892Z,2.20
2022-09-12T19:26:30.499Z,2.23
2022-09-12T19:28:58.018Z,3.20
2022-09-12T19:31:27.360Z,4.07
2022-09-12T19:33:59.716Z,2.70
2022-09-12T19:36:44.444Z,4.10
2022-09-12T19:39:14.209Z,3.03
2022-09-12T19:41:41.603Z,2.65
2022-09-12T19:44:09.164Z,2.47
2022-09-12T19:46:36.703Z,2.75
2022-09-12T19:49:04.658Z,2.85
2022-09-12T19:51:32.284Z,2.43
2022-09-12T19:53:59.755Z,2.33
2022-09-12T19:56:29.266Z,2.35
2022-09-12T19:58:57.000Z,3.75
2022-09-12T20:01:27.972Z,4.38
2022-09-12T20:03:55.696Z,2.60
2022-09-12T20:06:23.399Z,5.47
2022-09-12T20:08:50.855Z,2.80
2022-09-12T20:11:20.726Z,3.03
2022-09-12T20:13:50.022Z,3.40
2022-09-12T20:16:22.158Z,3.03
2022-09-12T20:18:54.489Z,2.88
2022-09-12T20:21:25.019Z,3.60
2022-09-12T20:23:52.457Z,3.40
2022-09-12T20:26:20.722Z,3.53
2022-09-12T20:28:49.691Z,3.50
2022-09-12T20:31:17.696Z,4.00
2022-09-12T20:33:49.830Z,5.00
2022-09-12T20:36:20.876Z,4.68
2022-09-12T20:38:49.771Z,3.10
2022-09-12T20:41:17.954Z,4.13
2022-09-12T20:43:45.415Z,2.60
2022-09-12T20:46:15.950Z,5.20
2022-09-12T20:48:46.733Z,4.93
2022-09-12T20:51:14.828Z,3.35
2022-09-12T20:53:42.252Z,3.87
2022-09-12T20:56:09.712Z,3.97
2022-09-12T20:58:40.510Z,4.15
2022-09-12T21:01:12.452Z,3.13
2022-09-12T21:03:42.586Z,2.95
2022-09-12T21:06:12.363Z,5.10
2022-09-12T21:08:40.343Z,7.78
2022-09-12T21:11:08.223Z,3.15
2022-09-12T21:13:36.098Z,4.03
2022-09-12T21:16:05.587Z,4.43
2022-09-12T21:18:33.931Z,4.53
2022-09-12T21:21:03.225Z,6.28
2022-09-12T21:23:31.127Z,3.45
2022-09-12T21:25:59.912Z,4.85
2022-09-12T21:28:27.530Z,3.30
2022-09-12T21:30:55.019Z,3.23
2022-09-12T21:33:22.928Z,3.42
2022-09-12T21:35:50.712Z,3.05
2022-09-12T21:38:20.398Z,2.92
2022-09-12T21:40:49.366Z,4.13
2022-09-12T21:43:16.856Z,2.90
2022-09-12T21:45:44.292Z,3.25
2022-09-12T21:48:11.742Z,4.00
2022-09-12T21:50:39.170Z,3.95
2022-09-12T21:53:06.633Z,3.88
2022-09-12T21:55:35.660Z,3.30
2022-09-12T21:58:03.099Z,5.38
2022-09-12T22:00:30.538Z,4.55
2022-09-12T22:02:58.932Z,3.70
2022-09-12T22:05:29.771Z,3.88
2022-09-12T22:07:57.192Z,3.07
2022-09-12T22:10:24.958Z,5.03
2022-09-12T22:12:54.071Z,4.00
2022-09-12T22:15:39.981Z,6.00
2022-09-12T22:18:08.272Z,3.40
2022-09-12T22:20:35.738Z,3.63
2022-09-12T22:23:24.543Z,8.55
2022-09-12T22:25:54.898Z,3.45
2022-09-12T22:28:24.988Z,3.65
2022-09-12T22:30:54.251Z,3.08
2022-09-12T22:33:21.932Z,4.23
2022-09-12T22:35:49.381Z,4.57
2022-09-12T22:38:16.819Z,3.47
2022-09-12T22:40:44.538Z,4.95
2022-09-12T22:43:12.514Z,3.75
2022-09-12T22:45:42.956Z,4.47
2022-09-12T22:48:10.514Z,4.50
2022-09-12T22:50:38.329Z,5.07
2022-09-12T22:53:05.774Z,6.10
2022-09-12T22:55:33.188Z,4.28
2022-09-12T22:58:00.622Z,3.60
2022-09-12T23:00:29.561Z,4.00
2022-09-12T23:02:58.436Z,4.78
2022-09-12T23:05:25.946Z,5.90
2022-09-12T23:07:54.095Z,3.95
2022-09-12T23:10:21.576Z,4.97
2022-09-12T23:12:49.690Z,3.95
2022-09-12T23:15:17.124Z,5.78
2022-09-12T23:17:44.543Z,6.07
2022-09-12T23:20:13.439Z,4.15
2022-09-12T23:22:40.841Z,6.30
2022-09-12T23:25:09.175Z,3.03
2022-09-12T23:27:36.583Z,2.92
2022-09-12T23:30:04.379Z,2.83
2022-09-12T23:32:31.785Z,4.30
2022-09-12T23:34:59.315Z,5.67
2022-09-12T23:37:28.055Z,4.18
2022-09-12T23:39:55.503Z,2.67
2022-09-12T23:42:23.312Z,3.33
2022-09-12T23:44:50.700Z,4.68
2022-09-12T23:47:18.326Z,3.70
2022-09-12T23:49:46.078Z,5.32
2022-09-12T23:52:13.519Z,4.53
2022-09-12T23:54:42.252Z,4.07
2022-09-12T23:57:09.705Z,3.80
2022-09-12T23:59:37.123Z,4.33
